»·PEaware :: HYDRA63 KSJT-KSKF

HYDRA63 :: KSJT-KSKF

FLIGHT INFORMATION

Flight Status: Arrived
Operator: Unknown
More flights by this operator :: More flights under this callsign
Pilot: 47th FTW Laughlin (28783)
Aircraft: BEECH AIRCRAFT T-6A TEXAN
(TEX2)
More flights by this aircraft type
Origin: KSJT San Angelo Regl/Mathis
United States
Destination: KSKF Lackland AFB Kelly Fld Annex
United States
More flights between these airports :: More routes between these airports
Route: +JCT CSI CSI2
File this flight plan on PilotEdge
Remarks:
Altitude:
(Current/Filed)
21,000ft
Speed:
(Current/Filed)
250kts
Departed: 29-Jul-20 11:41 AM
Arrived: 29-Jul-20 12:44 PM
Distance/Time
Traveled:
154nm/1:02
Distance/Time
To Go:
Arrived

Flight Plot

Page will automatically refresh every two minutes.

Flight plan parsing failed; only flown route is shown


Map Options




Map Legend


Flown Route
Filed Route
Departure Airport
Arrival Airport
Navaid (VOR, NDB)
Fix

Horizontal Profiles

Position Reports

Time Latitude Longitude Heading Altitude Ground
Speed
29-Jul-20 11:35 31.365550 -100.499719 4 1908ft 34kts
29-Jul-20 11:36 31.368357 -100.499040 49 1908ft 0kts
29-Jul-20 11:37 31.368711 -100.498460 66 1908ft 0kts
29-Jul-20 11:38 31.366131 -100.497909 186 1908ft 15kts
29-Jul-20 11:39 31.366020 -100.497925 186 1908ft 0kts
29-Jul-20 11:40 31.354570 -100.499462 178 2215ft 126kts
29-Jul-20 11:41 31.309348 -100.505841 185 4713ft 175kts
29-Jul-20 11:42 31.261490 -100.507691 160 7917ft 178kts
29-Jul-20 11:43 31.222669 -100.465838 135 10040ft 221kts
29-Jul-20 11:44 31.184891 -100.418022 133 13488ft 194kts
29-Jul-20 11:45 31.147010 -100.373112 134 16702ft 201kts
29-Jul-20 11:46 31.108887 -100.328363 135 20013ft 193kts
29-Jul-20 11:47 31.066314 -100.277749 136 21023ft 251kts
29-Jul-20 11:48 31.014388 -100.217114 134 20933ft 269kts
29-Jul-20 11:49 30.966718 -100.160056 134 20911ft 237kts
29-Jul-20 11:50 30.921328 -100.105497 135 20953ft 234kts
29-Jul-20 11:51 30.874882 -100.049420 136 21037ft 253kts
29-Jul-20 11:52 30.818122 -99.994856 141 20951ft 272kts
29-Jul-20 11:53 30.758310 -99.939766 147 20962ft 277kts
29-Jul-20 11:54 30.694136 -99.889995 146 20989ft 276kts
29-Jul-20 11:55 30.630258 -99.843072 137 20969ft 271kts
29-Jul-20 11:56 30.571950 -99.788535 146 20906ft 270kts
29-Jul-20 11:57 30.516624 -99.730899 130 20881ft 268kts
29-Jul-20 11:58 30.468721 -99.665324 132 20941ft 267kts
29-Jul-20 11:59 30.414598 -99.606646 139 20968ft 266kts
29-Jul-20 12:00 30.357511 -99.551903 142 20970ft 267kts
29-Jul-20 12:01 30.297924 -99.500082 145 20959ft 267kts
29-Jul-20 12:02 30.237231 -99.451032 146 21038ft 266kts
29-Jul-20 12:03 30.175971 -99.402176 145 20728ft 271kts
29-Jul-20 12:04 30.114347 -99.357369 150 18044ft 258kts
29-Jul-20 12:05 30.054222 -99.314347 148 15703ft 255kts
29-Jul-20 12:06 29.995786 -99.270230 144 13724ft 248kts
29-Jul-20 12:07 29.939743 -99.224362 144 11391ft 242kts
29-Jul-20 12:09 29.903349 -99.171392 88 9920ft 220kts
29-Jul-20 12:10 29.884381 -99.105485 117 9887ft 223kts
29-Jul-20 12:11 29.859389 -99.039633 110 7877ft 222kts
29-Jul-20 12:12 29.838797 -98.975343 115 5867ft 207kts
29-Jul-20 12:13 29.812028 -98.918059 135 3833ft 197kts
29-Jul-20 12:14 29.776263 -98.878497 135 3919ft 159kts
29-Jul-20 12:15 29.744006 -98.840481 133 3951ft 177kts
29-Jul-20 12:16 29.708791 -98.798191 137 3784ft 178kts
29-Jul-20 12:17 29.676325 -98.760238 134 3018ft 154kts
29-Jul-20 12:18 29.648141 -98.725311 133 3027ft 150kts
29-Jul-20 12:19 29.618935 -98.690678 130 3062ft 151kts
29-Jul-20 12:20 29.588657 -98.656676 149 3064ft 153kts
29-Jul-20 12:21 29.548400 -98.640951 161 2685ft 154kts
29-Jul-20 12:22 29.508885 -98.627516 160 2440ft 133kts
29-Jul-20 12:23 29.478848 -98.616824 161 2319ft 104kts
29-Jul-20 12:23 29.455873 -98.607803 158 1567ft 107kts
29-Jul-20 12:25 29.423275 -98.595802 159 1095ft 103kts
29-Jul-20 12:26 29.396034 -98.585454 161 700ft 92kts
29-Jul-20 12:26 29.372312 -98.576909 158 1582ft 155kts
29-Jul-20 12:28 29.311095 -98.563478 208 3022ft 234kts
29-Jul-20 12:29 29.328955 -98.597748 334 2758ft 194kts
29-Jul-20 12:29 29.352633 -98.635584 304 2997ft 175kts
29-Jul-20 12:30 29.380020 -98.683053 306 2990ft 181kts
29-Jul-20 12:32 29.422257 -98.723921 343 3012ft 174kts
29-Jul-20 12:32 29.460123 -98.737688 344 3026ft 166kts
29-Jul-20 12:33 29.503686 -98.753977 344 3022ft 159kts
29-Jul-20 12:34 29.544575 -98.762484 53 3036ft 144kts
29-Jul-20 12:35 29.558680 -98.719821 74 3046ft 144kts
29-Jul-20 12:36 29.566800 -98.676065 118 3082ft 138kts
29-Jul-20 12:37 29.540407 -98.642633 133 3014ft 144kts
29-Jul-20 12:38 29.504292 -98.625302 159 2378ft 118kts
29-Jul-20 12:39 29.478322 -98.616118 157 2335ft 96kts
29-Jul-20 12:40 29.451312 -98.605783 160 1798ft 109kts
29-Jul-20 12:41 29.424050 -98.596035 155 1260ft 96kts
29-Jul-20 12:42 29.398761 -98.586477 159 756ft 94kts
29-Jul-20 12:43 29.383697 -98.580412 99 692ft 20kts
29-Jul-20 12:44 29.385076 -98.577142 346 692ft 19kts
29-Jul-20 12:45 29.387396 -98.576107 283 692ft 7kts

Navigation Log

Ident Type
Flight plan parsing failed, navigation log unavailable